sensor_id;sensor_type;location;lat;lon;timestamp;temperature;humidity
22153;DHT22;11242;50.536;12.688;2024-03-23T00:54:22;6.80;99.90
22153;DHT22;11242;50.536;12.688;2024-03-23T00:56:47;6.80;99.90
22153;DHT22;11242;50.536;12.688;2024-03-23T00:59:13;6.80;99.90
22153;DHT22;11242;50.536;12.688;2024-03-23T01:01:39;6.90;99.90
22153;DHT22;11242;50.536;12.688;2024-03-23T01:04:04;7.00;99.90
22153;DHT22;11242;50.536;12.688;2024-03-23T01:06:30;7.00;99.90
22153;DHT22;11242;50.536;12.688;2024-03-23T01:08:56;7.00;99.90
22153;DHT22;11242;50.536;12.688;2024-03-23T01:11:21;7.10;99.90
22153;DHT22;11242;50.536;12.688;2024-03-23T01:13:47;7.10;99.90
22153;DHT22;11242;50.536;12.688;2024-03-23T01:16:12;7.10;99.90
22153;DHT22;11242;50.536;12.688;2024-03-23T01:18:38;7.00;99.90
22153;DHT22;11242;50.536;12.688;2024-03-23T01:21:03;7.00;99.90
22153;DHT22;11242;50.536;12.688;2024-03-23T01:23:29;7.00;99.90
22153;DHT22;11242;50.536;12.688;2024-03-23T01:25:55;7.00;99.90
22153;DHT22;11242;50.536;12.688;2024-03-23T01:28:21;7.10;99.90
22153;DHT22;11242;50.536;12.688;2024-03-23T01:30:47;7.10;99.90
22153;DHT22;11242;50.536;12.688;2024-03-23T01:33:12;7.10;99.90
22153;DHT22;11242;50.536;12.688;2024-03-23T01:35:38;6.90;99.90
22153;DHT22;11242;50.536;12.688;2024-03-23T01:38:04;6.80;99.90
22153;DHT22;11242;50.536;12.688;2024-03-23T01:40:29;6.70;99.90
22153;DHT22;11242;50.536;12.688;2024-03-23T01:43:04;6.70;99.90
22153;DHT22;11242;50.536;12.688;2024-03-23T01:45:34;6.80;99.90
22153;DHT22;11242;50.536;12.688;2024-03-23T01:48:00;6.70;99.90
22153;DHT22;11242;50.536;12.688;2024-03-23T01:50:26;6.80;99.90
22153;DHT22;11242;50.536;12.688;2024-03-23T01:52:53;6.90;99.90
22153;DHT22;11242;50.536;12.688;2024-03-23T01:55:19;6.90;99.90
22153;DHT22;11242;50.536;12.688;2024-03-23T01:57:45;7.00;99.90
22153;DHT22;11242;50.536;12.688;2024-03-23T02:00:11;7.00;99.90
22153;DHT22;11242;50.536;12.688;2024-03-23T02:02:44;7.00;99.90
22153;DHT22;11242;50.536;12.688;2024-03-23T02:05:11;7.00;99.90
22153;DHT22;11242;50.536;12.688;2024-03-23T02:07:40;6.90;99.90
22153;DHT22;11242;50.536;12.688;2024-03-23T02:10:07;6.90;99.90
22153;DHT22;11242;50.536;12.688;2024-03-23T02:12:33;6.80;99.90
22153;DHT22;11242;50.536;12.688;2024-03-23T02:14:58;6.90;99.90
22153;DHT22;11242;50.536;12.688;2024-03-23T02:17:24;6.80;99.90
22153;DHT22;11242;50.536;12.688;2024-03-23T02:19:50;6.80;99.90
22153;DHT22;11242;50.536;12.688;2024-03-23T02:22:16;6.80;99.90
22153;DHT22;11242;50.536;12.688;2024-03-23T02:24:42;6.90;99.90
22153;DHT22;11242;50.536;12.688;2024-03-23T02:27:07;7.00;99.90
22153;DHT22;11242;50.536;12.688;2024-03-23T02:29:33;7.00;99.90
22153;DHT22;11242;50.536;12.688;2024-03-23T02:31:58;7.10;99.90
22153;DHT22;11242;50.536;12.688;2024-03-23T02:34:24;7.10;99.90
22153;DHT22;11242;50.536;12.688;2024-03-23T02:36:50;7.30;99.90
22153;DHT22;11242;50.536;12.688;2024-03-23T02:39:15;7.60;99.90
22153;DHT22;11242;50.536;12.688;2024-03-23T02:41:41;7.60;99.90
22153;DHT22;11242;50.536;12.688;2024-03-23T02:44:06;7.70;99.90
22153;DHT22;11242;50.536;12.688;2024-03-23T02:46:32;7.70;99.90
22153;DHT22;11242;50.536;12.688;2024-03-23T02:48:57;7.70;99.90
22153;DHT22;11242;50.536;12.688;2024-03-23T02:51:23;7.60;99.90
22153;DHT22;11242;50.536;12.688;2024-03-23T02:53:49;7.50;99.90
22153;DHT22;11242;50.536;12.688;2024-03-23T02:56:14;7.40;99.90
22153;DHT22;11242;50.536;12.688;2024-03-23T02:58:42;7.50;99.90
22153;DHT22;11242;50.536;12.688;2024-03-23T03:01:08;7.50;99.90
22153;DHT22;11242;50.536;12.688;2024-03-23T03:03:33;7.40;99.90
22153;DHT22;11242;50.536;12.688;2024-03-23T03:05:59;7.30;99.90
22153;DHT22;11242;50.536;12.688;2024-03-23T03:08:25;7.20;99.90
22153;DHT22;11242;50.536;12.688;2024-03-23T03:10:50;7.10;99.90
22153;DHT22;11242;50.536;12.688;2024-03-23T03:13:16;7.10;99.90
22153;DHT22;11242;50.536;12.688;2024-03-23T03:15:43;7.20;99.90
22153;DHT22;11242;50.536;12.688;2024-03-23T03:18:09;7.00;99.90
22153;DHT22;11242;50.536;12.688;2024-03-23T03:20:39;7.00;99.90
22153;DHT22;11242;50.536;12.688;2024-03-23T03:23:05;6.90;99.90
22153;DHT22;11242;50.536;12.688;2024-03-23T03:25:30;6.80;99.90
22153;DHT22;11242;50.536;12.688;2024-03-23T03:27:56;6.70;99.90
22153;DHT22;11242;50.536;12.688;2024-03-23T03:30:22;6.60;99.90
22153;DHT22;11242;50.536;12.688;2024-03-23T03:32:47;6.50;99.90
22153;DHT22;11242;50.536;12.688;2024-03-23T03:35:13;6.40;99.90
22153;DHT22;11242;50.536;12.688;2024-03-23T03:37:38;6.30;99.90
22153;DHT22;11242;50.536;12.688;2024-03-23T03:40:04;6.30;99.90
22153;DHT22;11242;50.536;12.688;2024-03-23T03:42:30;6.30;99.90
22153;DHT22;11242;50.536;12.688;2024-03-23T03:44:55;6.30;99.90
22153;DHT22;11242;50.536;12.688;2024-03-23T03:47:21;6.20;99.90
22153;DHT22;11242;50.536;12.688;2024-03-23T03:49:47;6.10;99.90
22153;DHT22;11242;50.536;12.688;2024-03-23T03:52:13;6.00;99.90
22153;DHT22;11242;50.536;12.688;2024-03-23T03:54:38;6.10;99.90
22153;DHT22;11242;50.536;12.688;2024-03-23T03:57:04;6.10;99.90
22153;DHT22;11242;50.536;12.688;2024-03-23T03:59:29;6.20;99.90
22153;DHT22;11242;50.536;12.688;2024-03-23T04:01:55;6.20;99.90
22153;DHT22;11242;50.536;12.688;2024-03-23T04:04:20;6.20;99.90
22153;DHT22;11242;50.536;12.688;2024-03-23T04:06:47;6.10;99.90
22153;DHT22;11242;50.536;12.688;2024-03-23T04:09:13;6.10;99.90
22153;DHT22;11242;50.536;12.688;2024-03-23T04:11:38;6.10;99.90
22153;DHT22;11242;50.536;12.688;2024-03-23T04:14:04;6.10;99.90
22153;DHT22;11242;50.536;12.688;2024-03-23T04:16:33;6.20;99.90
22153;DHT22;11242;50.536;12.688;2024-03-23T04:18:58;6.40;99.90
22153;DHT22;11242;50.536;12.688;2024-03-23T04:21:24;6.60;99.90
22153;DHT22;11242;50.536;12.688;2024-03-23T04:23:50;6.60;99.90
22153;DHT22;11242;50.536;12.688;2024-03-23T04:26:15;6.50;99.90
22153;DHT22;11242;50.536;12.688;2024-03-23T04:28:41;6.50;99.90
22153;DHT22;11242;50.536;12.688;2024-03-23T04:31:06;6.40;99.90
22153;DHT22;11242;50.536;12.688;2024-03-23T04:33:32;6.60;99.90
22153;DHT22;11242;50.536;12.688;2024-03-23T04:35:57;6.60;99.90
22153;DHT22;11242;50.536;12.688;2024-03-23T04:38:23;6.70;99.90
22153;DHT22;11242;50.536;12.688;2024-03-23T04:40:58;6.70;99.90
22153;DHT22;11242;50.536;12.688;2024-03-23T04:43:26;6.80;99.90
22153;DHT22;11242;50.536;12.688;2024-03-23T04:45:51;6.90;99.90
22153;DHT22;11242;50.536;12.688;2024-03-23T04:48:20;6.90;99.90
22153;DHT22;11242;50.536;12.688;2024-03-23T04:50:45;6.90;99.90
22153;DHT22;11242;50.536;12.688;2024-03-23T04:53:12;6.80;99.90
22153;DHT22;11242;50.536;12.688;2024-03-23T04:55:38;6.70;99.90
22153;DHT22;11242;50.536;12.688;2024-03-23T04:58:04;6.70;99.90
22153;DHT22;11242;50.536;12.688;2024-03-23T05:00:29;6.70;99.90
22153;DHT22;11242;50.536;12.688;2024-03-23T05:02:55;6.70;99.90
22153;DHT22;11242;50.536;12.688;2024-03-23T05:05:20;6.70;99.90
22153;DHT22;11242;50.536;12.688;2024-03-23T05:07:46;6.70;99.90
22153;DHT22;11242;50.536;12.688;2024-03-23T05:10:11;6.80;99.90
22153;DHT22;11242;50.536;12.688;2024-03-23T05:12:39;6.90;99.90
22153;DHT22;11242;50.536;12.688;2024-03-23T05:15:05;6.90;99.90
22153;DHT22;11242;50.536;12.688;2024-03-23T05:17:32;7.00;99.90
22153;DHT22;11242;50.536;12.688;2024-03-23T05:19:57;7.10;99.90
22153;DHT22;11242;50.536;12.688;2024-03-23T05:22:23;7.10;99.90
22153;DHT22;11242;50.536;12.688;2024-03-23T05:24:48;7.20;99.90
22153;DHT22;11242;50.536;12.688;2024-03-23T05:27:14;7.20;99.90
22153;DHT22;11242;50.536;12.688;2024-03-23T05:29:40;7.60;99.90
22153;DHT22;11242;50.536;12.688;2024-03-23T05:32:06;7.60;99.90
22153;DHT22;11242;50.536;12.688;2024-03-23T05:34:31;7.60;99.90
22153;DHT22;11242;50.536;12.688;2024-03-23T05:36:57;7.60;99.90
22153;DHT22;11242;50.536;12.688;2024-03-23T05:39:22;7.60;99.90
22153;DHT22;11242;50.536;12.688;2024-03-23T05:41:49;7.70;99.90
22153;DHT22;11242;50.536;12.688;2024-03-23T05:44:14;7.90;99.90
22153;DHT22;11242;50.536;12.688;2024-03-23T05:46:41;8.10;99.90
22153;DHT22;11242;50.536;12.688;2024-03-23T05:49:06;8.40;99.90
22153;DHT22;11242;50.536;12.688;2024-03-23T05:51:32;8.70;99.90
22153;DHT22;11242;50.536;12.688;2024-03-23T05:53:58;8.70;99.90
22153;DHT22;11242;50.536;12.688;2024-03-23T05:56:24;8.70;99.90
22153;DHT22;11242;50.536;12.688;2024-03-23T05:58:51;8.70;99.90
22153;DHT22;11242;50.536;12.688;2024-03-23T06:01:16;8.60;99.90
22153;DHT22;11242;50.536;12.688;2024-03-23T06:03:43;8.50;99.90
22153;DHT22;11242;50.536;12.688;2024-03-23T06:06:09;8.40;99.90
22153;DHT22;11242;50.536;12.688;2024-03-23T06:08:37;8.40;99.90
22153;DHT22;11242;50.536;12.688;2024-03-23T06:11:03;8.40;99.90
22153;DHT22;11242;50.536;12.688;2024-03-23T06:13:29;8.50;99.90
22153;DHT22;11242;50.536;12.688;2024-03-23T06:15:56;8.60;99.90
22153;DHT22;11242;50.536;12.688;2024-03-23T06:18:21;8.70;99.90
22153;DHT22;11242;50.536;12.688;2024-03-23T06:20:47;8.70;99.90
22153;DHT22;11242;50.536;12.688;2024-03-23T06:23:12;8.60;99.90
22153;DHT22;11242;50.536;12.688;2024-03-23T06:25:38;8.60;99.90
22153;DHT22;11242;50.536;12.688;2024-03-23T06:28:04;8.60;99.90
22153;DHT22;11242;50.536;12.688;2024-03-23T06:30:30;8.70;99.90
22153;DHT22;11242;50.536;12.688;2024-03-23T06:32:57;8.70;99.90
22153;DHT22;11242;50.536;12.688;2024-03-23T06:35:23;8.80;99.90
22153;DHT22;11242;50.536;12.688;2024-03-23T06:37:49;8.80;99.90
22153;DHT22;11242;50.536;12.688;2024-03-23T06:40:14;8.90;99.90
22153;DHT22;11242;50.536;12.688;2024-03-23T06:42:40;9.00;99.90
22153;DHT22;11242;50.536;12.688;2024-03-23T06:45:06;9.10;99.90
22153;DHT22;11242;50.536;12.688;2024-03-23T06:47:31;9.30;99.90
22153;DHT22;11242;50.536;12.688;2024-03-23T06:49:59;9.40;99.90
22153;DHT22;11242;50.536;12.688;2024-03-23T06:52:24;9.40;99.90
22153;DHT22;11242;50.536;12.688;2024-03-23T06:54:50;9.50;99.90
22153;DHT22;11242;50.536;12.688;2024-03-23T06:57:15;9.60;99.90
22153;DHT22;11242;50.536;12.688;2024-03-23T06:59:41;9.70;99.90
22153;DHT22;11242;50.536;12.688;2024-03-23T07:02:06;9.70;99.90
22153;DHT22;11242;50.536;12.688;2024-03-23T07:04:35;9.80;99.90
22153;DHT22;11242;50.536;12.688;2024-03-23T07:07:01;9.90;99.90
22153;DHT22;11242;50.536;12.688;2024-03-23T07:09:27;9.90;99.90
22153;DHT22;11242;50.536;12.688;2024-03-23T07:11:56;10.00;99.90
22153;DHT22;11242;50.536;12.688;2024-03-23T07:14:23;10.10;99.90
22153;DHT22;11242;50.536;12.688;2024-03-23T07:16:49;10.30;99.90
22153;DHT22;11242;50.536;12.688;2024-03-23T07:19:15;10.40;99.90
22153;DHT22;11242;50.536;12.688;2024-03-23T07:21:44;10.50;99.90
22153;DHT22;11242;50.536;12.688;2024-03-23T07:24:10;10.50;99.90
22153;DHT22;11242;50.536;12.688;2024-03-23T07:26:36;10.50;99.90
22153;DHT22;11242;50.536;12.688;2024-03-23T07:29:02;10.60;99.90
22153;DHT22;11242;50.536;12.688;2024-03-23T07:31:27;10.70;99.90
22153;DHT22;11242;50.536;12.688;2024-03-23T07:33:53;10.70;99.90
22153;DHT22;11242;50.536;12.688;2024-03-23T07:36:19;10.60;99.90
22153;DHT22;11242;50.536;12.688;2024-03-23T07:38:44;10.70;99.90
22153;DHT22;11242;50.536;12.688;2024-03-23T07:41:20;11.00;99.90
22153;DHT22;11242;50.536;12.688;2024-03-23T07:43:47;12.20;99.90
22153;DHT22;11242;50.536;12.688;2024-03-23T07:46:13;13.20;99.90
22153;DHT22;11242;50.536;12.688;2024-03-23T07:48:39;14.80;99.90
22153;DHT22;11242;50.536;12.688;2024-03-23T07:51:21;15.20;99.90
22153;DHT22;11242;50.536;12.688;2024-03-23T07:53:46;14.80;99.90
22153;DHT22;11242;50.536;12.688;2024-03-23T07:56:14;14.90;99.90
22153;DHT22;11242;50.536;12.688;2024-03-23T07:58:44;14.50;99.90
22153;DHT22;11242;50.536;12.688;2024-03-23T08:01:11;13.10;99.90
22153;DHT22;11242;50.536;12.688;2024-03-23T08:03:39;12.20;99.90
22153;DHT22;11242;50.536;12.688;2024-03-23T08:06:15;11.90;99.90
22153;DHT22;11242;50.536;12.688;2024-03-23T08:08:42;11.70;99.90
22153;DHT22;11242;50.536;12.688;2024-03-23T08:11:08;11.40;99.90
22153;DHT22;11242;50.536;12.688;2024-03-23T08:13:34;11.20;99.90
22153;DHT22;11242;50.536;12.688;2024-03-23T08:16:01;11.00;99.90
22153;DHT22;11242;50.536;12.688;2024-03-23T08:18:27;10.80;99.90
22153;DHT22;11242;50.536;12.688;2024-03-23T08:21:00;10.60;99.90
22153;DHT22;11242;50.536;12.688;2024-03-23T08:23:27;10.40;99.90
22153;DHT22;11242;50.536;12.688;2024-03-23T08:25:57;10.30;99.90
22153;DHT22;11242;50.536;12.688;2024-03-23T08:28:23;10.30;99.90
22153;DHT22;11242;50.536;12.688;2024-03-23T08:30:49;10.30;99.90
22153;DHT22;11242;50.536;12.688;2024-03-23T08:33:15;10.30;99.90
22153;DHT22;11242;50.536;12.688;2024-03-23T08:35:41;10.20;99.90
22153;DHT22;11242;50.536;12.688;2024-03-23T08:38:07;10.10;99.90
22153;DHT22;11242;50.536;12.688;2024-03-23T08:40:32;10.10;99.90
22153;DHT22;11242;50.536;12.688;2024-03-23T08:42:58;10.00;99.90
22153;DHT22;11242;50.536;12.688;2024-03-23T08:45:26;9.90;99.90
22153;DHT22;11242;50.536;12.688;2024-03-23T08:47:52;9.70;99.90
22153;DHT22;11242;50.536;12.688;2024-03-23T08:50:18;9.60;99.90
22153;DHT22;11242;50.536;12.688;2024-03-23T08:52:44;9.40;99.90
22153;DHT22;11242;50.536;12.688;2024-03-23T08:55:09;9.20;99.90
22153;DHT22;11242;50.536;12.688;2024-03-23T08:57:35;9.10;99.90
22153;DHT22;11242;50.536;12.688;2024-03-23T09:00:02;9.10;99.90
22153;DHT22;11242;50.536;12.688;2024-03-23T09:02:27;9.10;99.90
22153;DHT22;11242;50.536;12.688;2024-03-23T09:04:53;9.00;99.90
22153;DHT22;11242;50.536;12.688;2024-03-23T09:07:18;8.90;99.90
22153;DHT22;11242;50.536;12.688;2024-03-23T09:09:44;8.90;99.90
22153;DHT22;11242;50.536;12.688;2024-03-23T09:12:09;8.90;99.90
22153;DHT22;11242;50.536;12.688;2024-03-23T09:14:35;8.80;99.90
22153;DHT22;11242;50.536;12.688;2024-03-23T09:17:01;8.80;99.90
22153;DHT22;11242;50.536;12.688;2024-03-23T09:19:29;8.70;99.90
22153;DHT22;11242;50.536;12.688;2024-03-23T09:21:55;8.50;99.90
22153;DHT22;11242;50.536;12.688;2024-03-23T09:24:21;8.30;99.90
22153;DHT22;11242;50.536;12.688;2024-03-23T09:26:47;7.70;99.90
22153;DHT22;11242;50.536;12.688;2024-03-23T09:29:12;6.10;99.90
22153;DHT22;11242;50.536;12.688;2024-03-23T09:31:39;5.30;99.90
22153;DHT22;11242;50.536;12.688;2024-03-23T09:34:04;5.00;99.90
22153;DHT22;11242;50.536;12.688;2024-03-23T09:36:30;4.90;99.90
22153;DHT22;11242;50.536;12.688;2024-03-23T09:38:56;4.70;99.90
22153;DHT22;11242;50.536;12.688;2024-03-23T09:41:21;4.30;99.90
22153;DHT22;11242;50.536;12.688;2024-03-23T09:43:47;4.10;99.90
22153;DHT22;11242;50.536;12.688;2024-03-23T09:46:14;3.90;99.90
22153;DHT22;11242;50.536;12.688;2024-03-23T09:48:40;3.90;99.90
22153;DHT22;11242;50.536;12.688;2024-03-23T09:51:07;3.90;99.90
22153;DHT22;11242;50.536;12.688;2024-03-23T09:53:34;4.00;99.90
22153;DHT22;11242;50.536;12.688;2024-03-23T09:56:00;3.90;99.90
22153;DHT22;11242;50.536;12.688;2024-03-23T09:58:25;3.90;99.90
22153;DHT22;11242;50.536;12.688;2024-03-23T10:00:51;3.80;99.90
22153;DHT22;11242;50.536;12.688;2024-03-23T10:03:16;3.90;99.90
22153;DHT22;11242;50.536;12.688;2024-03-23T10:05:42;3.90;99.90
22153;DHT22;11242;50.536;12.688;2024-03-23T10:10:40;3.80;99.90
22153;DHT22;11242;50.536;12.688;2024-03-23T10:13:05;3.80;99.90
22153;DHT22;11242;50.536;12.688;2024-03-23T10:15:34;3.80;99.90
22153;DHT22;11242;50.536;12.688;2024-03-23T10:18:18;3.80;99.90
22153;DHT22;11242;50.536;12.688;2024-03-23T10:20:47;3.90;99.90
22153;DHT22;11242;50.536;12.688;2024-03-23T10:23:16;3.90;99.90
22153;DHT22;11242;50.536;12.688;2024-03-23T10:25:42;3.90;99.90
22153;DHT22;11242;50.536;12.688;2024-03-23T10:28:08;3.90;99.90
22153;DHT22;11242;50.536;12.688;2024-03-23T10:30:34;3.90;99.90
22153;DHT22;11242;50.536;12.688;2024-03-23T10:33:12;3.80;99.90
22153;DHT22;11242;50.536;12.688;2024-03-23T10:35:38;3.70;99.90
22153;DHT22;11242;50.536;12.688;2024-03-23T10:38:07;3.80;99.90
22153;DHT22;11242;50.536;12.688;2024-03-23T10:40:36;3.80;99.90
22153;DHT22;11242;50.536;12.688;2024-03-23T10:43:06;3.80;99.90
22153;DHT22;11242;50.536;12.688;2024-03-23T10:45:33;3.80;99.90
22153;DHT22;11242;50.536;12.688;2024-03-23T10:47:59;3.80;99.90
22153;DHT22;11242;50.536;12.688;2024-03-23T10:50:24;3.80;99.90
22153;DHT22;11242;50.536;12.688;2024-03-23T10:52:52;4.00;99.90
22153;DHT22;11242;50.536;12.688;2024-03-23T10:55:19;4.00;99.90
22153;DHT22;11242;50.536;12.688;2024-03-23T10:57:50;3.90;99.90
22153;DHT22;11242;50.536;12.688;2024-03-23T11:00:17;3.90;99.90
22153;DHT22;11242;50.536;12.688;2024-03-23T11:02:43;3.90;99.90
22153;DHT22;11242;50.536;12.688;2024-03-23T11:05:31;3.90;99.90
22153;DHT22;11242;50.536;12.688;2024-03-23T11:07:56;4.00;99.90
22153;DHT22;11242;50.536;12.688;2024-03-23T11:10:27;4.00;99.90
22153;DHT22;11242;50.536;12.688;2024-03-23T11:12:54;4.00;99.90
22153;DHT22;11242;50.536;12.688;2024-03-23T11:15:20;4.00;99.90
22153;DHT22;11242;50.536;12.688;2024-03-23T11:18:06;4.10;99.90
22153;DHT22;11242;50.536;12.688;2024-03-23T11:20:36;4.10;99.90
22153;DHT22;11242;50.536;12.688;2024-03-23T11:23:02;4.10;99.90
22153;DHT22;11242;50.536;12.688;2024-03-23T11:25:29;4.10;99.90
22153;DHT22;11242;50.536;12.688;2024-03-23T11:28:13;4.00;99.90
22153;DHT22;11242;50.536;12.688;2024-03-23T11:30:40;4.10;99.90
22153;DHT22;11242;50.536;12.688;2024-03-23T11:33:05;4.20;99.90
22153;DHT22;11242;50.536;12.688;2024-03-23T11:35:33;4.20;99.90
22153;DHT22;11242;50.536;12.688;2024-03-23T11:38:09;4.20;99.90
22153;DHT22;11242;50.536;12.688;2024-03-23T11:40:37;4.30;99.90
22153;DHT22;11242;50.536;12.688;2024-03-23T11:43:04;4.30;99.90
22153;DHT22;11242;50.536;12.688;2024-03-23T11:45:48;4.30;99.90
22153;DHT22;11242;50.536;12.688;2024-03-23T11:48:16;4.40;99.90
22153;DHT22;11242;50.536;12.688;2024-03-23T11:50:45;4.50;99.90
22153;DHT22;11242;50.536;12.688;2024-03-23T11:55:57;4.70;99.90
22153;DHT22;11242;50.536;12.688;2024-03-23T11:58:24;4.70;99.90
22153;DHT22;11242;50.536;12.688;2024-03-23T12:01:03;4.70;99.90
22153;DHT22;11242;50.536;12.688;2024-03-23T12:03:31;4.50;99.90
22153;DHT22;11242;50.536;12.688;2024-03-23T12:06:03;4.50;99.90
22153;DHT22;11242;50.536;12.688;2024-03-23T12:08:32;4.70;99.90
22153;DHT22;11242;50.536;12.688;2024-03-23T12:11:05;4.70;99.90
22153;DHT22;11242;50.536;12.688;2024-03-23T12:13:31;4.60;99.90
22153;DHT22;11242;50.536;12.688;2024-03-23T12:18:34;4.50;99.90
22153;DHT22;11242;50.536;12.688;2024-03-23T12:21:00;4.50;99.90
22153;DHT22;11242;50.536;12.688;2024-03-23T12:23:25;4.50;99.90
22153;DHT22;11242;50.536;12.688;2024-03-23T12:25:51;4.50;99.90
22153;DHT22;11242;50.536;12.688;2024-03-23T12:28:16;4.60;99.90
22153;DHT22;11242;50.536;12.688;2024-03-23T12:30:42;4.60;99.90
22153;DHT22;11242;50.536;12.688;2024-03-23T12:33:08;4.70;99.90
22153;DHT22;11242;50.536;12.688;2024-03-23T12:35:34;4.60;99.90
22153;DHT22;11242;50.536;12.688;2024-03-23T12:38:00;4.80;99.90
22153;DHT22;11242;50.536;12.688;2024-03-23T12:40:25;5.10;99.90
22153;DHT22;11242;50.536;12.688;2024-03-23T12:42:52;5.60;99.90
22153;DHT22;11242;50.536;12.688;2024-03-23T12:45:18;5.90;99.90
22153;DHT22;11242;50.536;12.688;2024-03-23T12:47:43;6.10;99.90
22153;DHT22;11242;50.536;12.688;2024-03-23T12:50:09;6.10;99.90
22153;DHT22;11242;50.536;12.688;2024-03-23T12:52:36;6.00;99.90
22153;DHT22;11242;50.536;12.688;2024-03-23T12:55:02;5.90;99.90
22153;DHT22;11242;50.536;12.688;2024-03-23T12:57:28;5.90;99.90
22153;DHT22;11242;50.536;12.688;2024-03-23T12:59:54;5.90;99.90
22153;DHT22;11242;50.536;12.688;2024-03-23T13:02:20;6.00;99.90
22153;DHT22;11242;50.536;12.688;2024-03-23T13:04:53;6.20;99.90
22153;DHT22;11242;50.536;12.688;2024-03-23T13:07:19;6.50;99.90
22153;DHT22;11242;50.536;12.688;2024-03-23T13:09:45;6.70;99.90
22153;DHT22;11242;50.536;12.688;2024-03-23T13:12:11;6.90;99.90
22153;DHT22;11242;50.536;12.688;2024-03-23T13:14:39;6.80;99.90
22153;DHT22;11242;50.536;12.688;2024-03-23T13:17:06;6.80;99.90
22153;DHT22;11242;50.536;12.688;2024-03-23T13:19:32;6.70;99.90
22153;DHT22;11242;50.536;12.688;2024-03-23T13:21:58;6.70;99.90
22153;DHT22;11242;50.536;12.688;2024-03-23T13:24:24;6.80;99.90
22153;DHT22;11242;50.536;12.688;2024-03-23T13:26:51;6.60;99.90
22153;DHT22;11242;50.536;12.688;2024-03-23T13:29:17;6.70;99.90
22153;DHT22;11242;50.536;12.688;2024-03-23T13:31:43;6.60;99.90
22153;DHT22;11242;50.536;12.688;2024-03-23T13:34:08;6.70;99.90
22153;DHT22;11242;50.536;12.688;2024-03-23T13:36:34;6.70;99.90
22153;DHT22;11242;50.536;12.688;2024-03-23T13:39:01;6.70;99.90
22153;DHT22;11242;50.536;12.688;2024-03-23T13:41:28;6.60;99.90
22153;DHT22;11242;50.536;12.688;2024-03-23T13:43:53;6.70;99.90
22153;DHT22;11242;50.536;12.688;2024-03-23T13:46:19;7.10;99.90
22153;DHT22;11242;50.536;12.688;2024-03-23T13:48:44;7.50;99.90
22153;DHT22;11242;50.536;12.688;2024-03-23T13:51:10;7.50;99.90
22153;DHT22;11242;50.536;12.688;2024-03-23T13:53:35;7.40;99.90
22153;DHT22;11242;50.536;12.688;2024-03-23T13:56:01;7.20;99.90
22153;DHT22;11242;50.536;12.688;2024-03-23T13:58:26;6.90;99.90
22153;DHT22;11242;50.536;12.688;2024-03-23T14:00:52;6.70;99.90
22153;DHT22;11242;50.536;12.688;2024-03-23T14:03:18;6.90;99.90
22153;DHT22;11242;50.536;12.688;2024-03-23T14:05:44;7.00;99.90
22153;DHT22;11242;50.536;12.688;2024-03-23T14:08:10;6.90;99.90
22153;DHT22;11242;50.536;12.688;2024-03-23T14:10:39;7.10;99.90
22153;DHT22;11242;50.536;12.688;2024-03-23T14:13:05;7.20;99.90
22153;DHT22;11242;50.536;12.688;2024-03-23T14:15:31;7.00;99.90
22153;DHT22;11242;50.536;12.688;2024-03-23T14:17:56;7.10;99.90
22153;DHT22;11242;50.536;12.688;2024-03-23T14:20:22;7.40;99.90
22153;DHT22;11242;50.536;12.688;2024-03-23T14:22:49;7.50;99.90
22153;DHT22;11242;50.536;12.688;2024-03-23T14:25:15;7.60;99.90
22153;DHT22;11242;50.536;12.688;2024-03-23T14:27:41;7.80;99.90
22153;DHT22;11242;50.536;12.688;2024-03-23T14:30:07;7.80;99.90
22153;DHT22;11242;50.536;12.688;2024-03-23T14:32:32;7.60;99.90
22153;DHT22;11242;50.536;12.688;2024-03-23T14:35:03;7.50;99.90
22153;DHT22;11242;50.536;12.688;2024-03-23T14:37:29;7.60;99.90
22153;DHT22;11242;50.536;12.688;2024-03-23T14:39:58;7.70;99.90
22153;DHT22;11242;50.536;12.688;2024-03-23T14:42:23;7.70;99.90
22153;DHT22;11242;50.536;12.688;2024-03-23T14:44:49;7.70;99.90
22153;DHT22;11242;50.536;12.688;2024-03-23T14:47:15;7.60;99.90
22153;DHT22;11242;50.536;12.688;2024-03-23T14:49:43;7.60;99.90
22153;DHT22;11242;50.536;12.688;2024-03-23T14:52:15;7.40;99.90
22153;DHT22;11242;50.536;12.688;2024-03-23T14:54:41;7.40;99.90
22153;DHT22;11242;50.536;12.688;2024-03-23T14:57:06;7.40;99.90
22153;DHT22;11242;50.536;12.688;2024-03-23T14:59:34;7.40;99.90
22153;DHT22;11242;50.536;12.688;2024-03-23T15:02:00;7.20;99.90
22153;DHT22;11242;50.536;12.688;2024-03-23T15:04:25;7.20;99.90
22153;DHT22;11242;50.536;12.688;2024-03-23T15:06:51;7.30;99.90
22153;DHT22;11242;50.536;12.688;2024-03-23T15:09:16;7.10;99.90
22153;DHT22;11242;50.536;12.688;2024-03-23T15:11:43;7.00;99.90
22153;DHT22;11242;50.536;12.688;2024-03-23T15:14:09;7.00;99.90
22153;DHT22;11242;50.536;12.688;2024-03-23T15:16:36;7.10;99.90
22153;DHT22;11242;50.536;12.688;2024-03-23T15:19:02;7.20;99.90
22153;DHT22;11242;50.536;12.688;2024-03-23T15:21:27;7.20;99.90
22153;DHT22;11242;50.536;12.688;2024-03-23T15:23:53;7.30;99.90
22153;DHT22;11242;50.536;12.688;2024-03-23T15:26:18;7.20;99.90
22153;DHT22;11242;50.536;12.688;2024-03-23T15:28:48;7.10;99.90
22153;DHT22;11242;50.536;12.688;2024-03-23T15:31:23;7.10;99.90
22153;DHT22;11242;50.536;12.688;2024-03-23T15:33:48;7.10;99.90
22153;DHT22;11242;50.536;12.688;2024-03-23T15:36:14;7.00;99.90
22153;DHT22;11242;50.536;12.688;2024-03-23T15:38:40;7.00;99.90
22153;DHT22;11242;50.536;12.688;2024-03-23T15:41:05;7.00;99.90
22153;DHT22;11242;50.536;12.688;2024-03-23T15:43:31;7.10;99.90
22153;DHT22;11242;50.536;12.688;2024-03-23T15:46:02;7.20;99.90
22153;DHT22;11242;50.536;12.688;2024-03-23T15:48:28;7.20;99.90
22153;DHT22;11242;50.536;12.688;2024-03-23T15:50:57;7.20;99.90
22153;DHT22;11242;50.536;12.688;2024-03-23T15:53:24;7.20;99.90
22153;DHT22;11242;50.536;12.688;2024-03-23T15:55:56;7.30;99.90
22153;DHT22;11242;50.536;12.688;2024-03-23T15:58:22;7.30;99.90
22153;DHT22;11242;50.536;12.688;2024-03-23T16:00:58;7.30;99.90
22153;DHT22;11242;50.536;12.688;2024-03-23T16:03:24;7.20;99.90
22153;DHT22;11242;50.536;12.688;2024-03-23T16:05:58;7.10;99.90
22153;DHT22;11242;50.536;12.688;2024-03-23T16:08:24;7.00;99.90
22153;DHT22;11242;50.536;12.688;2024-03-23T16:10:51;7.00;99.90
22153;DHT22;11242;50.536;12.688;2024-03-23T16:13:17;7.00;99.90
22153;DHT22;11242;50.536;12.688;2024-03-23T16:15:46;6.90;99.90
22153;DHT22;11242;50.536;12.688;2024-03-23T16:18:12;6.80;99.90
22153;DHT22;11242;50.536;12.688;2024-03-23T16:20:37;6.90;99.90
22153;DHT22;11242;50.536;12.688;2024-03-23T16:23:03;6.80;99.90
22153;DHT22;11242;50.536;12.688;2024-03-23T16:25:29;6.80;99.90
22153;DHT22;11242;50.536;12.688;2024-03-23T16:27:56;6.70;99.90